地図

経路データ

SID SEASON NUMBER BASIN SUBBASIN NAME ISO_TIME NATURE LAT LON WMO_WIND WMO_PRES WMO_AGENCY TRACK_TYPE DIST2LAND LANDFALL IFLAG USA_AGENCY USA_ATCF_ID USA_LAT USA_LON USA_RECORD USA_STATUS USA_WIND USA_PRES USA_SSHS USA_R34_NE USA_R34_SE USA_R34_SW USA_R34_NW USA_R50_NE USA_R50_SE USA_R50_SW USA_R50_NW USA_R64_NE USA_R64_SE USA_R64_SW USA_R64_NW USA_POCI USA_ROCI USA_RMW USA_EYE TOKYO_LAT TOKYO_LON TOKYO_GRADE TOKYO_WIND TOKYO_PRES TOKYO_R50_DIR TOKYO_R50_LONG TOKYO_R50_SHORT TOKYO_R30_DIR TOKYO_R30_LONG TOKYO_R30_SHORT TOKYO_LAND CMA_LAT CMA_LON CMA_CAT CMA_WIND CMA_PRES HKO_LAT HKO_LON HKO_CAT HKO_WIND HKO_PRES NEWDELHI_LAT NEWDELHI_LON NEWDELHI_GRADE NEWDELHI_WIND NEWDELHI_PRES NEWDELHI_CI NEWDELHI_DP NEWDELHI_POCI REUNION_LAT REUNION_LON REUNION_TYPE REUNION_WIND REUNION_PRES REUNION_TNUM REUNION_CI REUNION_RMW REUNION_R34_NE REUNION_R34_SE REUNION_R34_SW REUNION_R34_NW REUNION_R50_NE REUNION_R50_SE REUNION_R50_SW REUNION_R50_NW REUNION_R64_NE REUNION_R64_SE REUNION_R64_SW REUNION_R64_NW BOM_LAT BOM_LON BOM_TYPE BOM_WIND BOM_PRES BOM_TNUM BOM_CI BOM_RMW BOM_R34_NE BOM_R34_SE BOM_R34_SW BOM_R34_NW BOM_R50_NE BOM_R50_SE BOM_R50_SW BOM_R50_NW BOM_R64_NE BOM_R64_SE BOM_R64_SW BOM_R64_NW BOM_ROCI BOM_POCI BOM_EYE BOM_POS_METHOD BOM_PRES_METHOD NADI_LAT NADI_LON NADI_CAT NADI_WIND NADI_PRES WELLINGTON_LAT WELLINGTON_LON WELLINGTON_WIND WELLINGTON_PRES DS824_LAT DS824_LON DS824_STAGE DS824_WIND DS824_PRES TD9636_LAT TD9636_LON TD9636_STAGE TD9636_WIND TD9636_PRES TD9635_LAT TD9635_LON TD9635_WIND TD9635_PRES TD9635_ROCI NEUMANN_LAT NEUMANN_LON NEUMANN_CLASS NEUMANN_WIND NEUMANN_PRES MLC_LAT MLC_LON MLC_CLASS MLC_WIND MLC_PRES USA_GUST BOM_GUST BOM_GUST_PER REUNION_GUST REUNION_GUST_PER USA_SEAHGT USA_SEARAD_NE USA_SEARAD_SE USA_SEARAD_SW USA_SEARAD_NW STORM_SPEED STORM_DIR
1998283N13149 1998 82 WP MM NOT_NAMED 1998-10-10 06:00:00 NR 13.1000 148.800 main 1709 1709 O_____________ jtwc_wp WP191998 13.1000 148.800 45 0 14 290
1998283N13149 1998 82 WP MM NOT_NAMED 1998-10-10 09:00:00 NR 13.3326 148.150 main 1727 1727 P_____________ WP191998 13.3326 148.150 47 0 15 290
1998283N13149 1998 82 WP MM NOT_NAMED 1998-10-10 12:00:00 NR 13.6000 147.400 main 1758 1758 O_____________ jtwc_wp WP191998 13.6000 147.400 50 0 17 290
1998283N13149 1998 82 WP MM NOT_NAMED 1998-10-10 15:00:00 NR 13.9150 146.488 main 1792 1792 P_____________ WP191998 13.9150 146.488 50 0 19 288
1998283N13149 1998 82 WP MM NOT_NAMED 1998-10-10 18:00:00 NR 14.2000 145.500 main 1830 1830 O_____________ jtwc_wp WP191998 14.2000 145.500 50 0 19 283
1998283N13149 1998 82 WP MM NOT_NAMED 1998-10-10 21:00:00 NR 14.3497 144.542 main 1851 1851 P_____________ WP191998 14.3497 144.542 47 0 19 279
1998283N13149 1998 82 WP MM NOT_NAMED 1998-10-11 00:00:00 NR 14.5000 143.600 main 1888 1888 O_____________ jtwc_wp WP191998 14.5000 143.600 45 0 18 283
1998283N13149 1998 82 WP MM NOT_NAMED 1998-10-11 03:00:00 NR 14.7693 142.715 main 1880 1801 P_____________ WP191998 14.7693 142.715 45 0 18 289
1998283N13149 1998 82 WP MM NOT_NAMED 1998-10-11 06:00:00 NR 15.1000 141.800 main 1791 1690 O_____________ jtwc_wp WP191998 15.1000 141.800 45 0 20 289
1998283N13149 1998 82 WP MM NOT_NAMED 1998-10-11 09:00:00 NR 15.4271 140.787 main 1690 1594 P_____________ WP191998 15.4271 140.787 42 0 21 289
1998283N13149 1998 82 WP MM NOT_NAMED 1998-10-11 12:00:00 NR 15.8000 139.700 main 1584 1491 O_____________ jtwc_wp WP191998 15.8000 139.700 40 0 22 291
1998283N13149 1998 82 WP MM NOT_NAMED 1998-10-11 15:00:00 NR 16.2262 138.617 main 1481 1383 P_____________ WP191998 16.2262 138.617 37 0 24 292
1998283N13149 1998 82 WP MM NOT_NAMED 1998-10-11 18:00:00 NR 16.7000 137.400 main 1376 1270 O_____________ jtwc_wp WP191998 16.7000 137.400 35 0 27 292
1998283N13149 1998 82 WP MM NOT_NAMED 1998-10-11 21:00:00 NR 17.2296 135.968 main 1260 1146 P_____________ WP191998 17.2296 135.968 32 -1 30 289
1998283N13149 1998 82 WP MM NOT_NAMED 1998-10-12 00:00:00 NR 17.7000 134.400 main 1137 1022 O_____________ jtwc_wp WP191998 17.7000 134.400 30 -1 32 286
1998283N13149 1998 82 WP MM NOT_NAMED 1998-10-12 03:00:00 NR 18.1145 132.795 main 1013 880 P_____________ WP191998 18.1145 132.795 30 -1 31 279
1998283N13149 1998 82 WP MM NOT_NAMED 1998-10-12 06:00:00 NR 18.2000 131.200 main 871 722 O_____________ jtwc_wp WP191998 18.2000 131.200 30 -1 30 265
1998283N13149 1998 82 WP MM NOT_NAMED 1998-10-12 09:00:00 NR 17.8403 129.606 main 707 558 P_____________ WP191998 17.8403 129.606 30 -1 30 247
1998283N13149 1998 82 WP MM NOT_NAMED 1998-10-12 12:00:00 NR 17.0000 128.300 main 543 395 O_____________ jtwc_wp WP191998 17.0000 128.300 30 -1 29 224
1998283N13149 1998 82 WP MM NOT_NAMED 1998-10-12 15:00:00 NR 15.7570 127.498 main 395 286 P_____________ WP191998 15.7570 127.498 27 -1 30 205
1998283N13149 1998 82 WP MM NOT_NAMED 1998-10-12 18:00:00 NR 14.3000 127.000 main 280 O_____________ jtwc_wp WP191998 14.3000 127.000 25 -1 31 198

デジタル台風データ・検索

IBTrACS Databaseについて

本データベースは、米国NOAAが公開する1842年以降の世界の熱帯低気圧のベストトラックデータアーカイブInternational Best Track Archive for Climate Stewardship (IBTrACS)を、ウェブで閲覧しやすい形式に変換したものです。

最終更新日:2021-12-01